Time;durP1;ratioP1;P1;durP2;ratioP2;P2;SDS_P1;SDS_P2;PMS_P1;PMS_P2;Temp;Humidity;BMP_temperature;BMP_pressure;BME280_temperature;BME280_humidity;BME280_pressure;Samples;Min_cycle;Max_cycle;Signal;HPM_P1;HPM_P2
2023/05/02 00:01:27;;;;;;;4.45;1.90;;;9.90;99.90;;;;;;5000868;28;20348;-62
2023/05/02 00:03:53;;;;;;;13.30;2.72;;;10.00;99.90;;;;;;5005137;28;20087;-62
2023/05/02 00:06:19;;;;;;;9.60;2.42;;;9.90;99.90;;;;;;4988957;28;20050;-62
2023/05/02 00:08:44;;;;;;;11.20;2.28;;;9.80;99.90;;;;;;5005819;28;20153;-62
2023/05/02 00:11:10;;;;;;;8.02;2.05;;;9.70;99.90;;;;;;4988610;28;20080;-62
2023/05/02 00:13:36;;;;;;;9.75;2.40;;;9.70;99.90;;;;;;4987574;28;20050;-62
2023/05/02 00:16:01;;;;;;;5.38;1.98;;;9.70;99.90;;;;;;5006733;28;20038;-62
2023/05/02 00:18:27;;;;;;;8.75;1.92;;;9.60;99.90;;;;;;4971508;28;20052;-62
2023/05/02 00:20:54;;;;;;;3.95;1.60;;;9.60;99.90;;;;;;5006146;28;20631;-62
2023/05/02 00:23:20;;;;;;;10.07;1.80;;;9.60;99.90;;;;;;5006128;28;20077;-62
2023/05/02 00:25:46;;;;;;;3.60;1.55;;;9.60;99.90;;;;;;5006298;28;20085;-62
2023/05/02 00:28:12;;;;;;;3.03;1.60;;;9.50;99.90;;;;;;5005730;28;20306;-62
2023/05/02 00:30:44;;;;;;;11.40;1.98;;;9.50;99.90;;;;;;5004950;28;20503;-62
2023/05/02 00:33:12;;;;;;;9.13;1.88;;;9.50;99.90;;;;;;5005631;28;20291;-62
2023/05/02 00:35:38;;;;;;;4.40;2.00;;;9.50;99.90;;;;;;5005628;28;20057;-62
2023/05/02 00:38:03;;;;;;;5.95;1.95;;;9.50;99.90;;;;;;5006232;28;20046;-62
2023/05/02 00:40:29;;;;;;;9.80;2.35;;;9.50;99.90;;;;;;5005423;28;20111;-62
2023/05/02 00:42:55;;;;;;;10.10;2.45;;;9.50;99.90;;;;;;5004237;28;20042;-62
2023/05/02 00:45:21;;;;;;;7.43;2.35;;;9.60;99.90;;;;;;5005330;28;20038;-62
2023/05/02 00:47:49;;;;;;;11.77;1.90;;;9.60;99.90;;;;;;5005381;28;20545;-62
2023/05/02 00:50:16;;;;;;;5.93;1.92;;;9.50;99.90;;;;;;5006750;28;20523;-80
2023/05/02 00:52:42;;;;;;;9.82;2.03;;;9.60;99.90;;;;;;5005002;28;20042;-62
2023/05/02 00:55:08;;;;;;;11.32;2.08;;;9.50;99.90;;;;;;5008801;28;20133;-62
2023/05/02 00:57:34;;;;;;;9.77;2.05;;;9.30;99.90;;;;;;5006221;28;20038;-62
2023/05/02 01:00:00;;;;;;;4.60;1.77;;;9.30;99.90;;;;;;5005961;28;20452;-62
2023/05/02 01:03:05;;;;;;;8.20;2.22;;;9.30;99.90;;;;;;5005162;28;20046;-62
2023/05/02 01:05:53;;;;;;;4.53;1.48;;;9.20;99.90;;;;;;4989193;28;20121;-62
2023/05/02 01:08:45;;;;;;;6.78;2.10;;;9.20;99.90;;;;;;5005141;28;20040;-62
2023/05/02 01:11:27;;;;;;;12.07;2.03;;;9.10;99.90;;;;;;5005618;28;20082;-62
2023/05/02 01:13:55;;;;;;;10.93;2.47;;;9.10;99.90;;;;;;5005654;28;20038;-62
2023/05/02 01:16:22;;;;;;;13.02;2.15;;;9.00;99.90;;;;;;5009768;28;20045;-61
2023/05/02 01:18:50;;;;;;;11.00;2.67;;;9.00;99.90;;;;;;5008971;28;20057;-61
2023/05/02 01:21:16;;;;;;;13.07;2.60;;;9.00;99.90;;;;;;5009643;28;20042;-61
2023/05/02 01:24:00;;;;;;;18.65;3.65;;;8.90;99.90;;;;;;5009021;28;20050;-61
2023/05/02 01:26:43;;;;;;;11.13;2.13;;;8.80;99.90;;;;;;4991550;28;20046;-61
2023/05/02 01:29:12;;;;;;;13.40;2.55;;;8.80;99.90;;;;;;5009292;28;20508;-62
2023/05/02 01:31:41;;;;;;;14.55;2.22;;;8.60;99.90;;;;;;5007650;28;20081;-62
2023/05/02 01:34:10;;;;;;;13.60;2.45;;;8.60;99.90;;;;;;5009334;28;20108;-61
2023/05/02 01:36:46;;;;;;;12.25;2.38;;;8.40;99.90;;;;;;4974897;28;20161;-62
2023/05/02 01:39:20;;;;;;;18.67;3.72;;;8.30;99.90;;;;;;5008547;28;20374;-62
2023/05/02 01:41:50;;;;;;;13.30;1.95;;;8.30;99.90;;;;;;5009067;28;20069;-62
2023/05/02 01:44:19;;;;;;;14.38;2.35;;;8.20;99.90;;;;;;5008202;28;20038;-62
2023/05/02 01:46:46;;;;;;;9.75;2.33;;;8.20;99.90;;;;;;4991830;28;20057;-62
2023/05/02 01:49:12;;;;;;;19.35;2.70;;;8.20;99.90;;;;;;5007753;28;20535;-62
2023/05/02 01:51:44;;;;;;;14.30;2.30;;;8.20;99.90;;;;;;5009156;28;20053;-62
2023/05/02 01:54:12;;;;;;;9.30;2.47;;;8.20;99.90;;;;;;5008416;28;20041;-62
2023/05/02 01:56:38;;;;;;;17.10;3.85;;;8.20;99.90;;;;;;4990997;28;20089;-62
2023/05/02 01:59:07;;;;;;;19.15;3.30;;;8.20;99.90;;;;;;5008774;28;20508;-63
2023/05/02 02:01:36;;;;;;;29.50;4.65;;;8.20;99.90;;;;;;5007984;28;20069;-62
2023/05/02 02:04:05;;;;;;;20.88;3.53;;;8.10;99.90;;;;;;4995741;28;20092;-62
2023/05/02 02:06:31;;;;;;;12.32;2.58;;;8.00;99.90;;;;;;5008154;28;20096;-62
2023/05/02 02:08:57;;;;;;;21.15;3.85;;;8.00;99.90;;;;;;4991239;28;20086;-62
2023/05/02 02:11:36;;;;;;;25.65;3.97;;;8.00;99.90;;;;;;5008394;28;20053;-62
2023/05/02 02:14:09;;;;;;;17.05;3.35;;;8.00;99.90;;;;;;5007858;28;20117;-62
2023/05/02 02:16:38;;;;;;;22.27;3.63;;;8.00;99.90;;;;;;5009049;28;20129;-62
2023/05/02 02:19:09;;;;;;;31.27;5.22;;;8.00;99.90;;;;;;5007652;28;20041;-62
2023/05/02 02:21:35;;;;;;;;;;;8.00;99.90;;;;;;5009506;28;20042;-62
2023/05/02 02:24:04;;;;;;;21.42;4.90;;;8.00;99.90;;;;;;5007615;28;20370;-62
2023/05/02 02:26:30;;;;;;;11.30;2.80;;;8.00;99.90;;;;;;4989698;28;20038;-62
2023/05/02 02:28:55;;;;;;;19.92;3.95;;;7.90;99.90;;;;;;5008444;28;20049;-62
2023/05/02 02:31:24;;;;;;;16.67;3.58;;;7.90;99.90;;;;;;5007023;28;20064;-62
2023/05/02 02:33:50;;;;;;;15.38;3.17;;;7.90;99.90;;;;;;5008075;28;20080;-62
2023/05/02 02:36:32;;;;;;;9.85;2.20;;;7.90;99.90;;;;;;5006516;28;20492;-61
2023/05/02 02:39:11;;;;;;;23.63;3.72;;;7.90;99.90;;;;;;5009073;28;20088;-61
2023/05/02 02:42:03;;;;;;;20.03;3.13;;;7.90;99.90;;;;;;5007924;28;20076;-61
2023/05/02 02:44:57;;;;;;;20.17;2.85;;;7.80;99.90;;;;;;5006874;28;20551;-62
2023/05/02 02:47:45;;;;;;;15.65;3.17;;;7.80;99.90;;;;;;4979841;28;20053;-62
2023/05/02 02:50:35;;;;;;;24.60;3.20;;;7.80;99.90;;;;;;5005775;28;20085;-61
2023/05/02 02:53:18;;;;;;;17.55;2.95;;;7.80;99.90;;;;;;4990581;28;20345;-62
2023/05/02 02:55:59;;;;;;;13.32;2.53;;;7.80;99.90;;;;;;5007285;28;20504;-61
2023/05/02 02:58:36;;;;;;;14.65;2.65;;;7.80;99.90;;;;;;5002137;28;20054;-61
2023/05/02 03:01:05;;;;;;;22.63;3.33;;;7.90;99.90;;;;;;4979878;28;20061;-65
2023/05/02 03:03:33;;;;;;;17.60;2.88;;;7.90;99.90;;;;;;5007422;28;20050;-61
2023/05/02 03:05:59;;;;;;;17.00;3.38;;;7.90;99.90;;;;;;5006915;28;20050;-61
2023/05/02 03:08:25;;;;;;;21.15;3.67;;;7.90;99.90;;;;;;5007328;28;20077;-62
2023/05/02 03:10:51;;;;;;;19.02;3.72;;;7.90;99.90;;;;;;5007024;28;20081;-62
2023/05/02 03:13:16;;;;;;;14.82;3.25;;;7.80;99.90;;;;;;4973855;28;20045;-84
2023/05/02 03:15:51;;;;;;;15.65;2.88;;;7.80;99.90;;;;;;5006497;28;20046;-62
2023/05/02 03:18:17;;;;;;;16.02;3.72;;;7.80;99.90;;;;;;5007440;28;20590;-62
2023/05/02 03:20:43;;;;;;;14.55;2.85;;;7.80;99.90;;;;;;5007451;28;20375;-62
2023/05/02 03:23:08;;;;;;;16.73;2.58;;;7.70;99.90;;;;;;5006839;28;20042;-61
2023/05/02 03:25:35;;;;;;;18.08;2.70;;;7.70;99.90;;;;;;4989182;28;20308;-62
2023/05/02 03:28:00;;;;;;;11.80;2.17;;;7.70;99.90;;;;;;5006476;28;20436;-74
2023/05/02 03:30:26;;;;;;;12.75;2.03;;;7.70;99.90;;;;;;5007091;28;20062;-62
2023/05/02 03:32:52;;;;;;;12.23;2.00;;;7.70;99.10;;;;;;5006072;28;20428;-84
2023/05/02 03:35:18;;;;;;;8.90;2.15;;;7.70;99.90;;;;;;4989867;28;20038;-63
2023/05/02 03:37:44;;;;;;;9.60;2.42;;;7.60;98.40;;;;;;5006781;28;20054;-62
2023/05/02 03:40:10;;;;;;;4.53;1.80;;;7.70;99.90;;;;;;5007244;28;20048;-62
2023/05/02 03:42:38;;;;;;;20.60;3.05;;;7.70;99.90;;;;;;5006834;28;20072;-62
2023/05/02 03:45:05;;;;;;;16.75;2.85;;;7.70;99.90;;;;;;5006759;28;20557;-62
2023/05/02 03:47:31;;;;;;;15.20;2.28;;;7.70;99.90;;;;;;5006535;28;20141;-62
2023/05/02 03:49:58;;;;;;;11.70;1.83;;;7.60;99.90;;;;;;5006468;28;20101;-61
2023/05/02 03:52:24;;;;;;;7.63;1.75;;;7.60;99.90;;;;;;5007266;28;20050;-74
2023/05/02 03:54:50;;;;;;;13.52;2.15;;;7.60;99.90;;;;;;4988443;28;20052;-62
2023/05/02 03:57:16;;;;;;;8.65;1.80;;;7.60;98.80;;;;;;5006734;28;20558;-66
2023/05/02 03:59:44;;;;;;;6.85;2.10;;;7.50;98.00;;;;;;5006361;28;20091;-62
2023/05/02 04:02:11;;;;;;;8.00;1.48;;;7.50;97.80;;;;;;5006184;28;20056;-62
2023/05/02 04:04:37;;;;;;;7.57;1.45;;;7.60;94.70;;;;;;4972366;28;20054;-62
2023/05/02 04:07:04;;;;;;;6.13;1.50;;;7.60;95.30;;;;;;5005372;28;20472;-62
2023/05/02 04:09:30;;;;;;;11.27;1.85;;;7.60;93.50;;;;;;4988950;28;20042;-63
2023/05/02 04:11:55;;;;;;;5.10;1.50;;;7.60;90.80;;;;;;5005789;28;20080;-62
2023/05/02 04:14:21;;;;;;;7.63;1.40;;;7.60;92.00;;;;;;5006985;28;20042;-62
2023/05/02 04:16:48;;;;;;;2.92;1.23;;;7.60;93.00;;;;;;5005920;28;20563;-81
2023/05/02 04:19:15;;;;;;;3.40;1.17;;;7.50;84.90;;;;;;5005661;28;20523;-62
2023/05/02 04:21:41;;;;;;;11.65;1.90;;;7.60;79.60;;;;;;5005951;28;20057;-62
2023/05/02 04:24:09;;;;;;;8.90;1.83;;;7.50;83.90;;;;;;5005624;28;20451;-63
2023/05/02 04:26:36;;;;;;;7.00;1.33;;;7.50;75.30;;;;;;5006187;28;20104;-62
2023/05/02 04:29:03;;;;;;;6.68;1.13;;;7.50;77.60;;;;;;5005173;28;20044;-62
2023/05/02 04:31:30;;;;;;;8.60;1.30;;;7.50;78.50;;;;;;4987257;28;20108;-62
2023/05/02 04:33:56;;;;;;;12.02;2.47;;;7.40;78.60;;;;;;5005413;28;20042;-62
2023/05/02 04:36:24;;;;;;;19.67;3.33;;;7.40;90.70;;;;;;5006081;28;20069;-62
2023/05/02 04:38:51;;;;;;;11.68;2.17;;;7.50;91.60;;;;;;5006283;28;20050;-63
2023/05/02 04:41:17;;;;;;;18.90;2.78;;;7.50;86.50;;;;;;5005221;28;20108;-62
2023/05/02 04:43:43;;;;;;;11.95;2.10;;;7.50;90.00;;;;;;5005470;28;20037;-62
2023/05/02 04:46:09;;;;;;;13.43;2.85;;;7.50;84.90;;;;;;4987722;28;20511;-62
2023/05/02 04:48:35;;;;;;;16.58;3.25;;;7.40;89.70;;;;;;5007026;28;20079;-62
2023/05/02 04:51:00;;;;;;;10.10;2.20;;;7.40;78.50;;;;;;5011582;28;20113;-62
2023/05/02 04:53:26;;;;;;;16.05;2.45;;;7.40;76.50;;;;;;5012176;28;20038;-62
2023/05/02 04:55:52;;;;;;;10.57;2.10;;;7.40;73.90;;;;;;5012509;28;20042;-62
2023/05/02 04:58:18;;;;;;;11.50;2.38;;;7.40;71.50;;;;;;5012070;28;20056;-62
2023/05/02 05:00:44;;;;;;;11.10;2.25;;;7.40;73.20;;;;;;5012399;28;20041;-62
2023/05/02 05:03:10;;;;;;;12.65;2.35;;;7.30;70.50;;;;;;5011808;28;20042;-62
2023/05/02 05:05:35;;;;;;;11.70;1.92;;;7.30;71.30;;;;;;5011760;28;20049;-62
2023/05/02 05:08:01;;;;;;;10.10;1.65;;;7.30;69.20;;;;;;5011394;28;20042;-62
2023/05/02 05:10:27;;;;;;;10.88;1.95;;;7.30;65.80;;;;;;4995344;28;20087;-61
2023/05/02 05:12:53;;;;;;;11.85;2.10;;;7.30;67.70;;;;;;4977239;28;20127;-76
2023/05/02 05:15:22;;;;;;;9.43;2.00;;;7.20;58.90;;;;;;5011582;28;20116;-80
2023/05/02 05:17:48;;;;;;;15.38;2.10;;;7.30;65.30;;;;;;5012062;28;20044;-62
2023/05/02 05:20:14;;;;;;;10.25;2.10;;;7.30;58.60;;;;;;5012126;28;20042;-62
2023/05/02 05:22:41;;;;;;;10.30;2.45;;;7.30;41.80;;;;;;5011941;28;20619;-77
2023/05/02 05:25:08;;;;;;;14.68;3.05;;;7.30;58.80;;;;;;4994356;28;20069;-63
2023/05/02 05:27:34;;;;;;;13.35;2.33;;;7.30;66.30;;;;;;5013712;28;20057;-63
2023/05/02 05:30:01;;;;;;;17.05;2.65;;;7.30;60.40;;;;;;5012531;28;20516;-62
2023/05/02 05:32:27;;;;;;;8.40;1.80;;;7.30;50.70;;;;;;5012492;28;20066;-65
2023/05/02 05:34:54;;;;;;;7.05;2.17;;;7.30;48.00;;;;;;5011629;28;20093;-62
2023/05/02 05:37:20;;;;;;;14.93;2.85;;;7.20;44.40;;;;;;5011427;28;20050;-62
2023/05/02 05:39:46;;;;;;;12.10;2.28;;;7.30;48.10;;;;;;5011545;28;20057;-62
2023/05/02 05:42:12;;;;;;;8.43;1.60;;;7.30;38.20;;;;;;5011491;28;20159;-62
2023/05/02 05:44:38;;;;;;;14.35;2.40;;;7.30;37.80;;;;;;5011678;28;20088;-62
2023/05/02 05:47:04;;;;;;;15.95;2.45;;;7.30;44.80;;;;;;5011459;28;20072;-62
2023/05/02 05:49:30;;;;;;;15.38;2.58;;;7.30;39.40;;;;;;5012508;28;20685;-72
2023/05/02 05:51:56;;;;;;;9.07;2.00;;;7.30;39.40;;;;;;5010074;28;20180;-62
2023/05/02 05:54:22;;;;;;;11.23;1.80;;;7.40;33.90;;;;;;4977947;28;20121;-61
2023/05/02 05:56:48;;;;;;;13.60;2.45;;;7.40;35.90;;;;;;5011578;28;20026;-62
2023/05/02 05:59:14;;;;;;;12.57;2.50;;;7.50;32.30;;;;;;5011342;28;20046;-62
2023/05/02 06:01:40;;;;;;;18.90;2.38;;;7.50;27.60;;;;;;5007844;28;20058;-62
2023/05/02 06:04:06;;;;;;;22.58;2.78;;;7.50;28.00;;;;;;4989859;28;20053;-63
2023/05/02 06:06:32;;;;;;;8.23;1.95;;;7.50;23.80;;;;;;5009328;28;20045;-61
2023/05/02 06:08:59;;;;;;;13.30;2.25;;;7.50;28.80;;;;;;5007282;28;20527;-71
2023/05/02 06:11:25;;;;;;;15.35;1.90;;;7.60;29.50;;;;;;5009362;28;20206;-62
2023/05/02 06:13:52;;;;;;;10.48;2.00;;;7.60;23.60;;;;;;5008182;28;20073;-62
2023/05/02 06:16:18;;;;;;;9.52;1.98;;;7.70;36.80;;;;;;4989902;28;20041;-62
2023/05/02 06:18:44;;;;;;;18.33;2.42;;;7.70;39.00;;;;;;5007676;28;20184;-62
2023/05/02 06:21:10;;;;;;;13.38;2.10;;;7.70;40.00;;;;;;5007847;28;20038;-62
2023/05/02 06:23:36;;;;;;;14.02;2.70;;;7.80;35.40;;;;;;5008816;28;20599;-61
2023/05/02 06:26:03;;;;;;;14.00;2.17;;;7.80;37.80;;;;;;5007146;28;20465;-62
2023/05/02 06:28:30;;;;;;;14.20;2.40;;;7.80;37.40;;;;;;5008176;28;20038;-62
2023/05/02 06:31:00;;;;;;;12.00;2.00;;;7.90;36.20;;;;;;5006991;28;20116;-62
2023/05/02 06:33:30;;;;;;;9.25;2.03;;;7.90;47.70;;;;;;4990201;28;20042;-61
2023/05/02 06:35:56;;;;;;;;;;;8.00;32.60;;;;;;4976906;28;20093;-62
2023/05/02 06:38:22;;;;;;;13.82;2.67;;;7.90;28.80;;;;;;5005953;28;20000;-62
2023/05/02 06:40:48;;;;;;;11.63;2.25;;;7.90;41.70;;;;;;5007782;28;20034;-71
2023/05/02 06:43:15;;;;;;;10.23;2.25;;;8.00;47.00;;;;;;4993952;28;20064;-62
2023/05/02 06:45:40;;;;;;;16.85;2.20;;;7.90;37.00;;;;;;5008367;28;20165;-62
2023/05/02 06:48:07;;;;;;;9.55;2.35;;;7.80;32.00;;;;;;5006570;28;20121;-62
2023/05/02 06:50:33;;;;;;;12.45;2.22;;;7.80;40.00;;;;;;5007863;28;20117;-62
2023/05/02 06:52:59;;;;;;;15.57;2.28;;;7.80;38.50;;;;;;5007385;28;20041;-81
2023/05/02 06:55:25;;;;;;;8.95;1.70;;;7.80;37.90;;;;;;5008425;28;20068;-62
2023/05/02 06:57:52;;;;;;;9.80;2.50;;;7.80;42.10;;;;;;5006496;28;20053;-62
2023/05/02 07:00:18;;;;;;;16.45;2.40;;;7.80;39.70;;;;;;5005950;28;20041;-62
2023/05/02 07:02:45;;;;;;;7.65;2.42;;;7.80;38.60;;;;;;5008173;28;20388;-62
2023/05/02 07:05:12;;;;;;;8.60;2.15;;;8.00;43.50;;;;;;5007484;28;20142;-62
2023/05/02 07:07:38;;;;;;;10.93;2.17;;;8.00;32.40;;;;;;5006895;28;20431;-62
2023/05/02 07:10:04;;;;;;;17.50;2.33;;;8.10;28.40;;;;;;5005123;28;20104;-62
2023/05/02 07:12:30;;;;;;;7.53;1.75;;;8.20;25.00;;;;;;5004462;28;20053;-62
2023/05/02 07:14:56;;;;;;;7.18;1.70;;;8.30;32.20;;;;;;5006678;28;20053;-61
2023/05/02 07:17:22;;;;;;;11.40;1.75;;;8.20;12.50;;;;;;4988651;28;20050;-62
2023/05/02 07:19:48;;;;;;;10.20;1.90;;;8.30;21.90;;;;;;4989465;28;20399;-62
2023/05/02 07:22:13;;;;;;;8.65;2.03;;;8.30;23.10;;;;;;5006090;28;20057;-64
2023/05/02 07:24:40;;;;;;;8.10;1.85;;;8.40;12.20;;;;;;5007422;28;20124;-64
2023/05/02 07:27:08;;;;;;;6.70;1.65;;;8.40;11.70;;;;;;5006385;28;20038;-64
2023/05/02 07:29:34;;;;;;;10.68;2.13;;;8.40;8.10;;;;;;4988760;28;20141;-64
2023/05/02 07:32:01;;;;;;;5.47;1.60;;;8.40;2.50;;;;;;4980808;28;20569;-64
2023/05/02 07:34:27;;;;;;;7.85;1.48;;;8.40;1.40;;;;;;5006434;28;20057;-74
2023/05/02 07:36:52;;;;;;;6.22;1.63;;;8.40;12.80;;;;;;5006431;28;20049;-64
2023/05/02 07:39:19;;;;;;;5.50;1.33;;;8.60;4.40;;;;;;5005994;28;20042;-63
2023/05/02 07:41:45;;;;;;;6.93;1.42;;;8.60;6.80;;;;;;5007377;28;20181;-64
2023/05/02 07:44:11;;;;;;;7.70;1.70;;;8.70;8.00;;;;;;5005292;28;20061;-63
2023/05/02 07:46:36;;;;;;;8.02;1.50;;;8.90;19.30;;;;;;4988437;28;20092;-62
2023/05/02 07:49:02;;;;;;;6.70;1.38;;;9.00;12.70;;;;;;5005919;28;20096;-62
2023/05/02 07:51:28;;;;;;;8.27;1.60;;;9.10;12.90;;;;;;5006164;28;20042;-62
2023/05/02 07:53:57;;;;;;;6.20;1.40;;;9.10;2.60;;;;;;4987734;28;20045;-62
2023/05/02 07:56:24;;;;;;;5.85;2.58;;;9.20;5.20;;;;;;4986734;28;20066;-62
2023/05/02 07:58:50;;;;;;;10.23;1.35;;;9.10;11.40;;;;;;5005356;28;20139;-62
2023/05/02 08:01:17;;;;;;;7.15;1.38;;;9.00;9.20;;;;;;4970111;28;20049;-64
2023/05/02 08:03:43;;;;;;;7.65;1.45;;;8.90;6.40;;;;;;5005454;28;20045;-62
2023/05/02 08:06:09;;;;;;;6.75;1.50;;;8.90;12.10;;;;;;4977055;28;20401;-62
2023/05/02 08:08:35;;;;;;;8.23;1.35;;;8.70;10.70;;;;;;5000518;28;20060;-62
2023/05/02 08:11:01;;;;;;;10.55;1.55;;;8.80;21.90;;;;;;5005949;28;20127;-62
2023/05/02 08:13:27;;;;;;;7.70;1.42;;;8.90;17.80;;;;;;5005249;28;20504;-63
2023/05/02 08:15:56;;;;;;;7.18;1.63;;;9.10;14.40;;;;;;5006477;28;20056;-62
2023/05/02 08:18:26;;;;;;;5.17;1.37;;;9.30;12.60;;;;;;4988229;28;20502;-62
2023/05/02 08:20:54;;;;;;;7.00;1.30;;;9.40;14.20;;;;;;5005732;28;20380;-62
2023/05/02 08:23:20;;;;;;;3.67;1.17;;;9.40;13.40;;;;;;4984787;28;20452;-62
2023/05/02 08:25:46;;;;;;;3.90;1.27;;;9.60;12.10;;;;;;4987876;28;20078;-62
2023/05/02 08:28:12;;;;;;;5.00;1.25;;;9.80;15.20;;;;;;5005197;28;20077;-62
2023/05/02 08:30:38;;;;;;;7.00;1.20;;;9.80;5.40;;;;;;5005557;28;20124;-61
2023/05/02 08:33:04;;;;;;;3.90;1.00;;;9.90;4.10;;;;;;4988285;28;20148;-61
2023/05/02 08:35:29;;;;;;;3.67;1.10;;;10.00;10.00;;;;;;5004744;28;20129;-62
2023/05/02 08:37:55;;;;;;;8.10;1.02;;;10.00;1.00;;;;;;5001725;28;20519;-61
2023/05/02 08:40:22;;;;;;;5.78;1.08;;;10.20;7.30;;;;;;4950644;28;20046;-61
2023/05/02 08:42:48;;;;;;;4.90;0.77;;;10.40;1.00;;;;;;5006358;28;20056;-62
2023/05/02 08:45:14;;;;;;;2.35;0.85;;;10.50;1.00;;;;;;5055864;23;20054;-79
2023/05/02 08:47:41;;;;;;;5.82;1.10;;;10.50;5.30;;;;;;4978622;28;20153;-81
2023/05/02 08:50:10;;;;;;;3.85;1.10;;;10.40;7.60;;;;;;4967245;28;20045;-79
2023/05/02 08:52:37;;;;;;;6.18;1.20;;;10.40;3.30;;;;;;4968363;28;20045;-78
2023/05/02 08:55:06;;;;;;;6.85;1.00;;;10.10;1.00;;;;;;4978427;28;20416;-80
2023/05/02 08:57:32;;;;;;;5.43;1.15;;;9.90;5.20;;;;;;4979226;28;20491;-81
2023/05/02 08:59:58;;;;;;;6.47;1.17;;;9.80;3.40;;;;;;4972109;28;20050;-79
2023/05/02 09:02:42;;;;;;;4.88;1.40;;;9.70;7.30;;;;;;4976062;28;20533;-79
2023/05/02 09:05:11;;;;;;;4.50;0.82;;;10.10;7.30;;;;;;4971463;28;20538;-80
2023/05/02 09:07:48;;;;;;;2.72;0.85;;;10.20;1.00;;;;;;4971568;28;20126;-81
2023/05/02 09:10:14;;;;;;;8.43;1.00;;;10.30;1.00;;;;;;4968927;28;20054;-78
2023/05/02 09:12:40;;;;;;;3.35;0.77;;;10.50;1.00;;;;;;4972054;28;20042;-80
2023/05/02 09:15:15;;;;;;;2.05;0.90;;;10.80;1.00;;;;;;4987961;28;20042;-82
2023/05/02 09:17:45;;;;;;;4.45;0.82;;;11.10;1.00;;;;;;4957119;28;20103;-79
2023/05/02 09:20:12;;;;;;;;;;;11.10;1.00;;;;;;4979866;28;20050;-78
2023/05/02 09:22:46;;;;;;;1.20;0.68;;;11.30;1.00;;;;;;4970975;28;20295;-82
2023/05/02 09:25:13;;;;;;;8.30;1.40;;;11.20;1.00;;;;;;4965854;28;20056;-79
2023/05/02 09:27:52;;;;;;;4.22;1.38;;;10.80;1.00;;;;;;4970196;28;20050;-80
2023/05/02 09:30:24;;;;;;;5.43;0.80;;;10.60;1.00;;;;;;4987524;28;20064;-80
2023/05/02 09:32:50;;;;;;;4.00;0.98;;;10.40;1.00;;;;;;4959795;28;20050;-80
2023/05/02 09:35:22;;;;;;;5.57;1.25;;;10.40;1.00;;;;;;4958703;28;20097;-80
2023/05/02 09:37:58;;;;;;;3.00;0.88;;;10.80;11.70;;;;;;4976817;28;20050;-79
2023/05/02 09:40:24;;;;;;;11.80;1.38;;;11.30;6.10;;;;;;4977959;28;20053;-81
2023/05/02 09:42:51;;;;;;;6.60;1.02;;;11.50;7.40;;;;;;4976879;28;20392;-78
2023/05/02 09:45:24;;;;;;;7.72;1.10;;;11.30;4.80;;;;;;4963400;28;20112;-78
2023/05/02 09:47:51;;;;;;;3.40;0.95;;;10.90;1.00;;;;;;4971850;28;20034;-78
2023/05/02 09:50:37;;;;;;;4.40;0.95;;;10.50;2.50;;;;;;4970497;28;20142;-78
2023/05/02 09:53:04;;;;;;;4.93;1.52;;;10.20;10.90;;;;;;4975299;28;20046;-78
2023/05/02 09:55:31;;;;;;;6.70;1.33;;;10.00;16.80;;;;;;4976700;28;20527;-80
2023/05/02 09:57:57;;;;;;;5.50;1.02;;;9.80;22.50;;;;;;4987051;28;20556;-79
2023/05/02 10:00:41;;;;;;;3.00;1.00;;;9.60;31.10;;;;;;4955872;28;20050;-79
2023/05/02 10:03:08;;;;;;;5.47;1.30;;;9.20;34.40;;;;;;4960038;28;20050;-80
2023/05/02 10:05:38;;;;;;;2.83;1.13;;;9.00;30.40;;;;;;4977040;28;20251;-80
2023/05/02 10:08:09;;;;;;;7.10;1.20;;;8.90;34.80;;;;;;4969533;28;20058;-80
2023/05/02 10:10:46;;;;;;;6.20;1.13;;;8.90;36.50;;;;;;4957338;28;20050;-79
2023/05/02 10:13:13;;;;;;;3.90;1.55;;;9.00;29.70;;;;;;4972376;28;20039;-78
2023/05/02 10:15:43;;;;;;;8.05;1.10;;;9.10;24.70;;;;;;4954535;28;20065;-79
2023/05/02 10:18:14;;;;;;;7.38;1.17;;;9.20;20.90;;;;;;4942069;28;20064;-79
2023/05/02 10:20:48;;;;;;;2.67;0.95;;;9.40;18.50;;;;;;4982397;28;20065;-80
2023/05/02 10:23:15;;;;;;;4.22;0.95;;;9.90;17.20;;;;;;4947322;28;20057;-78
2023/05/02 10:25:42;;;;;;;3.10;0.80;;;10.30;15.80;;;;;;4963530;28;20041;-79
2023/05/02 10:28:09;;;;;;;4.50;1.00;;;10.50;6.10;;;;;;4969165;28;20050;-78
2023/05/02 10:30:36;;;;;;;6.45;1.33;;;10.60;6.90;;;;;;4957209;28;20054;-78
2023/05/02 10:33:03;;;;;;;7.30;1.70;;;10.80;7.70;;;;;;4957644;28;20046;-77
2023/05/02 10:35:30;;;;;;;4.35;1.23;;;11.00;8.90;;;;;;4961283;28;20104;-78
2023/05/02 10:37:58;;;;;;;4.75;1.10;;;11.30;11.00;;;;;;4964259;28;20439;-77
2023/05/02 10:40:25;;;;;;;3.67;0.82;;;11.40;6.30;;;;;;4982583;28;20107;-79
2023/05/02 10:42:51;;;;;;;3.10;0.95;;;11.30;3.40;;;;;;4960177;28;20050;-79
2023/05/02 10:45:36;;;;;;;4.72;1.20;;;11.20;6.80;;;;;;4981645;28;20521;-77
2023/05/02 10:48:12;;;;;;;7.38;0.90;;;11.00;1.70;;;;;;4960301;28;20058;-77
2023/05/02 10:50:46;;;;;;;3.42;0.82;;;10.90;1.00;;;;;;4974277;28;20057;-78
2023/05/02 10:53:27;;;;;;;1.27;0.63;;;10.90;4.70;;;;;;4972107;28;20089;-78
2023/05/02 10:56:13;;;;;;;1.75;0.70;;;11.00;1.40;;;;;;4978333;28;20572;-77
2023/05/02 10:58:40;;;;;;;7.03;0.98;;;11.00;5.70;;;;;;4977158;28;20551;-78
2023/05/02 11:01:25;;;;;;;3.10;0.75;;;11.10;9.00;;;;;;4980246;28;20128;-77
2023/05/02 11:03:58;;;;;;;2.50;0.90;;;11.10;1.00;;;;;;4996291;28;20065;-78
2023/05/02 11:06:57;;;;;;;5.15;0.82;;;11.10;1.00;;;;;;4965436;28;20050;-77
2023/05/02 11:09:23;;;;;;;4.15;0.65;;;11.30;6.50;;;;;;4965205;28;20520;-78
2023/05/02 11:11:51;;;;;;;5.88;1.00;;;11.40;1.00;;;;;;4997080;28;20095;-79
2023/05/02 11:14:32;;;;;;;2.15;0.93;;;11.20;1.00;;;;;;4978209;28;20057;-77
2023/05/02 11:16:58;;;;;;;5.18;1.45;;;10.90;4.60;;;;;;4980945;28;20493;-77
2023/05/02 11:19:28;;;;;;;4.97;0.88;;;10.80;9.50;;;;;;4964112;28;20057;-78
2023/05/02 11:22:20;;;;;;;3.58;0.80;;;11.00;8.20;;;;;;4984101;28;20369;-79
2023/05/02 11:24:48;;;;;;;2.20;0.75;;;10.90;11.70;;;;;;4967182;28;20100;-78
2023/05/02 11:27:29;;;;;;;2.97;0.80;;;10.60;22.90;;;;;;4970206;28;20046;-79
2023/05/02 11:30:08;;;;;;;4.20;0.55;;;10.40;18.30;;;;;;4957608;28;20046;-81
2023/05/02 11:32:44;;;;;;;2.63;0.60;;;10.20;25.40;;;;;;4970880;28;20054;-80
2023/05/02 11:35:26;;;;;;;4.53;1.00;;;10.20;35.10;;;;;;4972397;28;20065;-79
2023/05/02 11:38:07;;;;;;;4.38;1.17;;;10.40;37.70;;;;;;4942150;28;20034;-80
2023/05/02 11:40:33;;;;;;;2.83;0.63;;;10.40;31.30;;;;;;4954036;28;20107;-78
2023/05/02 11:43:00;;;;;;;2.15;0.77;;;10.40;41.20;;;;;;4960340;28;20042;-77
2023/05/02 11:45:36;;;;;;;3.28;0.80;;;10.20;29.80;;;;;;4960461;28;20062;-77
2023/05/02 11:48:06;;;;;;;6.30;1.05;;;10.10;35.60;;;;;;4985195;28;20141;-77
2023/05/02 11:50:33;;;;;;;2.90;0.70;;;10.10;37.80;;;;;;4971385;28;20053;-77
2023/05/02 11:52:59;;;;;;;2.17;0.98;;;10.00;27.90;;;;;;4973444;28;20100;-77
2023/05/02 11:55:26;;;;;;;3.67;0.90;;;10.00;35.70;;;;;;4958977;28;20113;-77
2023/05/02 11:57:51;;;;;;;3.08;0.90;;;9.80;29.70;;;;;;4965319;28;20156;-78
2023/05/02 12:00:17;;;;;;;3.75;0.90;;;9.70;28.70;;;;;;4970430;28;20062;-80
2023/05/02 12:02:46;;;;;;;4.90;0.60;;;9.60;34.10;;;;;;4969662;28;20349;-75
2023/05/02 12:05:14;;;;;;;4.47;1.00;;;9.80;49.00;;;;;;4956440;28;20438;-77
2023/05/02 12:07:43;;;;;;;4.45;1.10;;;10.10;36.60;;;;;;4957750;28;20495;-77
2023/05/02 12:10:11;;;;;;;7.03;1.20;;;10.70;53.20;;;;;;4956803;28;20042;-75
2023/05/02 12:12:38;;;;;;;3.75;1.75;;;11.00;30.00;;;;;;4954457;28;20050;-78
2023/05/02 12:15:09;;;;;;;7.10;0.93;;;11.10;26.20;;;;;;4964699;28;20060;-75
2023/05/02 12:17:48;;;;;;;7.05;0.80;;;11.10;31.00;;;;;;4968767;28;20049;-76
2023/05/02 12:20:15;;;;;;;6.40;1.05;;;11.40;28.00;;;;;;4969208;28;20042;-76
2023/05/02 12:22:41;;;;;;;4.60;0.90;;;11.40;24.80;;;;;;4970238;28;20046;-75
2023/05/02 12:25:08;;;;;;;6.10;1.15;;;11.30;23.90;;;;;;4970312;28;20086;-75
2023/05/02 12:27:34;;;;;;;8.70;1.20;;;11.20;21.00;;;;;;4953256;28;20177;-75
2023/05/02 12:30:00;;;;;;;8.20;1.02;;;11.10;24.70;;;;;;4971098;28;20494;-75
2023/05/02 12:32:29;;;;;;;1.23;0.55;;;10.90;14.80;;;;;;4953013;28;20409;-76
2023/05/02 12:34:56;;;;;;;4.38;0.98;;;10.70;22.90;;;;;;4955025;28;20046;-75
2023/05/02 12:37:25;;;;;;;2.35;0.80;;;10.60;20.90;;;;;;4968970;28;20096;-75
2023/05/02 12:39:52;;;;;;;3.13;0.75;;;10.50;23.20;;;;;;4954149;28;20441;-75
2023/05/02 12:42:20;;;;;;;2.30;0.90;;;10.50;21.50;;;;;;4969969;28;20046;-77
2023/05/02 12:44:48;;;;;;;3.80;0.70;;;10.70;18.40;;;;;;4966068;28;20134;-76
2023/05/02 12:47:15;;;;;;;4.15;0.63;;;10.80;12.00;;;;;;4967889;28;20041;-75
2023/05/02 12:49:56;;;;;;;3.38;0.75;;;10.70;28.50;;;;;;4965512;28;20051;-76
2023/05/02 12:52:45;;;;;;;2.75;0.70;;;10.70;9.40;;;;;;4956256;28;20101;-75
2023/05/02 12:55:19;;;;;;;3.05;1.02;;;10.60;6.40;;;;;;4950945;28;20396;-75
2023/05/02 12:57:46;;;;;;;7.47;0.90;;;10.70;10.10;;;;;;4966221;28;20051;-76
2023/05/02 13:00:15;;;;;;;4.15;0.80;;;10.80;21.40;;;;;;4968419;28;20050;-75
2023/05/02 13:02:41;;;;;;;2.97;0.60;;;10.90;11.10;;;;;;4966683;28;20400;-75